createdAt,value
2022-11-02T00:00:54.619Z,945.81
2022-11-02T00:01:54.698Z,946.36
2022-11-02T00:02:54.663Z,945.81
2022-11-02T00:03:54.624Z,945.94
2022-11-02T00:04:54.624Z,946.13
2022-11-02T00:05:54.627Z,946.67
2022-11-02T00:06:54.631Z,946.89
2022-11-02T00:07:54.658Z,947.63
2022-11-02T00:08:54.639Z,948.03
2022-11-02T00:09:54.635Z,948.3
2022-11-02T00:10:54.638Z,948.78
2022-11-02T00:11:54.635Z,949.69
2022-11-02T00:12:54.637Z,950.27
2022-11-02T00:13:54.644Z,951.04
2022-11-02T00:14:54.641Z,951.45
2022-11-02T00:15:54.644Z,952.13
2022-11-02T00:16:54.656Z,952.57
2022-11-02T00:17:54.707Z,952.88
2022-11-02T00:18:54.655Z,953.1
2022-11-02T00:19:54.667Z,952.84
2022-11-02T00:20:54.652Z,953.63
2022-11-02T00:21:54.651Z,954.34
2022-11-02T00:22:54.657Z,954.32
2022-11-02T00:23:54.678Z,954.93
2022-11-02T00:24:54.659Z,955.34
2022-11-02T00:25:54.659Z,956.02
2022-11-02T00:26:54.661Z,956.56
2022-11-02T00:27:54.663Z,957.17
2022-11-02T00:28:54.664Z,957.37
2022-11-02T00:29:57.756Z,957.84
2022-11-02T00:30:54.669Z,958.31
2022-11-02T00:31:54.669Z,958.37
2022-11-02T00:32:54.672Z,958.88
2022-11-02T00:33:54.673Z,958.17
2022-11-02T00:34:54.676Z,957.95
2022-11-02T00:35:54.676Z,958.48
2022-11-02T00:36:55.636Z,958.71
2022-11-02T00:37:54.682Z,958.84
2022-11-02T00:38:54.679Z,958.55
2022-11-02T00:39:54.708Z,958.8
2022-11-02T00:40:54.682Z,959.29
2022-11-02T00:41:54.684Z,959.04
2022-11-02T00:42:54.686Z,959.29
2022-11-02T00:43:54.691Z,959.66
2022-11-02T00:44:54.693Z,959.72
2022-11-02T00:45:54.692Z,960.31
2022-11-02T00:46:54.694Z,960.72
2022-11-02T00:47:54.700Z,961.17
2022-11-02T00:48:54.699Z,961.64
2022-11-02T00:49:54.696Z,961.74
2022-11-02T00:50:54.701Z,962.01
2022-11-02T00:51:54.703Z,962.12
2022-11-02T00:52:54.703Z,962.14
2022-11-02T00:53:54.703Z,962.38
2022-11-02T00:54:54.707Z,962.52
2022-11-02T00:55:54.729Z,962.19
2022-11-02T00:56:54.744Z,961.81
2022-11-02T00:57:54.709Z,961.51
2022-11-02T00:58:54.714Z,961.85
2022-11-02T00:59:54.717Z,961.54
2022-11-02T01:00:54.725Z,961.19
2022-11-02T01:01:57.657Z,961.35
2022-11-02T01:02:54.719Z,961.7
2022-11-02T01:03:54.719Z,962.04
2022-11-02T01:04:54.723Z,961.93
2022-11-02T01:05:54.731Z,962.03
2022-11-02T01:06:54.725Z,962.34
2022-11-02T01:07:54.732Z,962.78
2022-11-02T01:08:54.730Z,963.23
2022-11-02T01:09:54.735Z,963.14
2022-11-02T01:10:54.736Z,963.95
2022-11-02T01:11:54.763Z,964.13
2022-11-02T01:12:55.887Z,964.33
2022-11-02T01:13:54.740Z,964.79
2022-11-02T01:14:54.735Z,965.28
2022-11-02T01:15:54.740Z,965.62
2022-11-02T01:16:54.744Z,965.91
2022-11-02T01:17:54.744Z,966.3
2022-11-02T01:18:54.747Z,966.52
2022-11-02T01:19:54.749Z,966.5
2022-11-02T01:20:54.753Z,966.71
2022-11-02T01:21:54.748Z,966.47
2022-11-02T01:22:54.752Z,966.85
2022-11-02T01:23:57.509Z,966.62
2022-11-02T01:24:54.757Z,967.56
2022-11-02T01:25:54.756Z,967.68
2022-11-02T01:26:54.757Z,967.52
2022-11-02T01:27:54.787Z,967.99
2022-11-02T01:28:54.764Z,967.93
2022-11-02T01:29:54.834Z,968.01
2022-11-02T01:30:54.764Z,968.33
2022-11-02T01:31:54.765Z,968.22
2022-11-02T01:32:54.768Z,968.4
2022-11-02T01:33:54.768Z,968.21
2022-11-02T01:34:58.566Z,968.75
2022-11-02T01:35:54.887Z,968.55
2022-11-02T01:36:54.776Z,968.22
2022-11-02T01:37:54.777Z,968.16
2022-11-02T01:38:54.803Z,968.52
2022-11-02T01:39:54.810Z,968.66
2022-11-02T01:40:54.780Z,968.89
2022-11-02T01:41:54.790Z,968.97
2022-11-02T01:42:54.783Z,969.41
2022-11-02T01:43:54.828Z,969.4
2022-11-02T01:44:54.811Z,969.51
2022-11-02T01:45:57.884Z,969.71
2022-11-02T01:46:54.789Z,970.13
2022-11-02T01:47:54.790Z,970.22
2022-11-02T01:48:54.801Z,970.09
2022-11-02T01:49:54.818Z,970.62
2022-11-02T01:50:54.799Z,970.79
2022-11-02T01:51:54.799Z,970.76
2022-11-02T01:52:54.798Z,971.24
2022-11-02T01:53:54.803Z,971.08
2022-11-02T01:54:54.822Z,971.62
2022-11-02T01:55:54.803Z,971.68
2022-11-02T01:56:54.806Z,972.03
2022-11-02T01:57:54.807Z,972.18
2022-11-02T01:58:54.810Z,972.42
2022-11-02T01:59:54.861Z,972.36
2022-11-02T02:00:54.809Z,972.57
2022-11-02T02:01:54.909Z,972.83
2022-11-02T02:02:54.883Z,972.76
2022-11-02T02:03:54.820Z,972.86
2022-11-02T02:04:54.845Z,973.15
2022-11-02T02:05:54.818Z,973.1
2022-11-02T02:06:54.820Z,973.23
2022-11-02T02:07:54.826Z,973.03
2022-11-02T02:08:54.824Z,972.81
2022-11-02T02:09:54.855Z,973.12
2022-11-02T02:10:54.831Z,973.14
2022-11-02T02:11:54.827Z,973.4
2022-11-02T02:12:54.832Z,972.78
2022-11-02T02:13:54.841Z,972.76
2022-11-02T02:14:54.914Z,972.68
2022-11-02T02:15:54.857Z,972.59
2022-11-02T02:16:54.933Z,972.19
2022-11-02T02:17:54.842Z,972.07
2022-11-02T02:18:54.843Z,971.72
2022-11-02T02:19:54.863Z,971.91
2022-11-02T02:20:54.847Z,971.33
2022-11-02T02:21:54.846Z,971.31
2022-11-02T02:22:54.848Z,971.08
2022-11-02T02:23:54.853Z,971.09
2022-11-02T02:24:54.885Z,970.66
2022-11-02T02:25:54.852Z,970.3
2022-11-02T02:26:54.858Z,970.31
2022-11-02T02:27:54.861Z,969.52
2022-11-02T02:28:54.856Z,969.36
2022-11-02T02:29:54.889Z,968.88
2022-11-02T02:30:54.859Z,968.8
2022-11-02T02:31:54.885Z,968.58
2022-11-02T02:32:54.864Z,968.32
2022-11-02T02:33:54.865Z,968.15
2022-11-02T02:34:54.935Z,968.14
2022-11-02T02:35:54.869Z,968.02
2022-11-02T02:36:54.873Z,967.81
2022-11-02T02:37:54.872Z,967.37
2022-11-02T02:38:54.874Z,966.98
2022-11-02T02:39:54.895Z,966.92
2022-11-02T02:40:54.880Z,966.3
2022-11-02T02:41:54.875Z,965.99
2022-11-02T02:42:54.885Z,965.39
2022-11-02T02:43:54.886Z,964.98
2022-11-02T02:44:54.907Z,964.78
2022-11-02T02:45:54.894Z,964.01
2022-11-02T02:46:56.213Z,963.94
2022-11-02T02:47:54.911Z,963.86
2022-11-02T02:48:54.890Z,963.22
2022-11-02T02:49:54.913Z,962.67
2022-11-02T02:50:54.893Z,961.87
2022-11-02T02:51:54.891Z,960.96
2022-11-02T02:52:54.897Z,960.78
2022-11-02T02:53:54.897Z,960.2
2022-11-02T02:54:54.919Z,959.33
2022-11-02T02:55:54.899Z,958.35
2022-11-02T02:56:57.656Z,957.42
2022-11-02T02:57:54.904Z,955.85
2022-11-02T02:58:54.903Z,954.18
2022-11-02T02:59:54.936Z,952.91
2022-11-02T03:00:54.906Z,951.11
2022-11-02T03:01:54.958Z,950.06
2022-11-02T03:02:54.915Z,948.65
2022-11-02T03:03:54.937Z,947.27
2022-11-02T03:04:54.934Z,946.37
2022-11-02T03:05:54.916Z,944.63
2022-11-02T03:06:54.919Z,943.74
2022-11-02T03:07:54.919Z,942.64
2022-11-02T03:08:54.921Z,942.16
2022-11-02T03:09:54.952Z,941.46
2022-11-02T03:10:54.924Z,940.6
2022-11-02T03:11:54.926Z,940.6
2022-11-02T03:12:54.927Z,940.2
2022-11-02T03:13:54.927Z,939.36
2022-11-02T03:14:54.958Z,939.02
2022-11-02T03:15:54.933Z,938.7
2022-11-02T03:16:55.009Z,937.76
2022-11-02T03:17:54.935Z,937.3
2022-11-02T03:18:54.941Z,937.1
2022-11-02T03:19:54.987Z,936.18
2022-11-02T03:20:54.938Z,935.72
2022-11-02T03:21:54.945Z,934.8
2022-11-02T03:22:54.947Z,933.13
2022-11-02T03:23:54.945Z,932.67
2022-11-02T03:24:54.982Z,931.23
2022-11-02T03:25:54.953Z,929.88
2022-11-02T03:26:54.947Z,928.11
2022-11-02T03:27:54.952Z,927.01
2022-11-02T03:28:57.983Z,925.98
2022-11-02T03:29:54.976Z,925.47
2022-11-02T03:30:54.960Z,925.14
2022-11-02T03:31:54.963Z,924.08
2022-11-02T03:32:54.962Z,923.39
2022-11-02T03:33:54.963Z,922.83
2022-11-02T03:34:54.983Z,921.56
2022-11-02T03:35:54.992Z,920.61
2022-11-02T03:36:55.056Z,919.46
2022-11-02T03:37:54.965Z,918.89
2022-11-02T03:38:54.972Z,918.67
2022-11-02T03:39:56.640Z,918.23
2022-11-02T03:40:54.972Z,917.77
2022-11-02T03:41:54.976Z,917.37
2022-11-02T03:42:54.976Z,917.44
2022-11-02T03:43:54.976Z,917.36
2022-11-02T03:44:54.977Z,917.25
2022-11-02T03:45:54.981Z,916.85
2022-11-02T03:46:54.981Z,916.87
2022-11-02T03:47:54.980Z,916.48
2022-11-02T03:48:54.985Z,916.27
2022-11-02T03:49:54.983Z,916.31
2022-11-02T03:50:57.852Z,916.53
2022-11-02T03:51:55.012Z,916.27
2022-11-02T03:52:54.989Z,916.44
2022-11-02T03:53:54.992Z,916.01
2022-11-02T03:54:54.996Z,915.89
2022-11-02T03:55:54.994Z,915.67
2022-11-02T03:56:55.053Z,915.38
2022-11-02T03:57:54.997Z,914.78
2022-11-02T03:58:54.996Z,914.22
2022-11-02T03:59:55.004Z,913.58
2022-11-02T04:00:55.001Z,912.13
2022-11-02T04:01:58.135Z,910.93
2022-11-02T04:02:55.027Z,909.99
2022-11-02T04:03:55.008Z,908.84
2022-11-02T04:04:55.007Z,908.31
2022-11-02T04:05:55.014Z,908.01
2022-11-02T04:06:55.011Z,906.86
2022-11-02T04:07:56.771Z,905.86
2022-11-02T04:08:55.019Z,905.26
2022-11-02T04:09:55.015Z,904.17
2022-11-02T04:10:55.015Z,903.55
2022-11-02T04:11:55.021Z,902.05
2022-11-02T04:12:55.021Z,901.03
2022-11-02T04:13:55.023Z,899.74
2022-11-02T04:14:55.026Z,898.7
2022-11-02T04:15:55.029Z,898.38
2022-11-02T04:16:55.025Z,896.93
2022-11-02T04:17:55.026Z,895.56
2022-11-02T04:18:55.033Z,894.78
2022-11-02T04:19:55.030Z,892.98
2022-11-02T04:20:55.034Z,891.72
2022-11-02T04:21:55.036Z,891.22
2022-11-02T04:22:55.035Z,890.65
2022-11-02T04:23:55.062Z,890.34
2022-11-02T04:24:55.039Z,890.89
2022-11-02T04:25:55.044Z,890.52
2022-11-02T04:26:55.046Z,890.51
2022-11-02T04:27:55.046Z,889.96
2022-11-02T04:28:55.048Z,889.23
2022-11-02T04:29:55.049Z,888.93
2022-11-02T04:30:55.049Z,888.76
2022-11-02T04:31:55.054Z,888.5
2022-11-02T04:32:55.076Z,888.26
2022-11-02T04:33:55.053Z,887.94
2022-11-02T04:34:55.057Z,888.04
2022-11-02T04:35:55.057Z,887.59
2022-11-02T04:36:55.058Z,886.63
2022-11-02T04:37:55.062Z,886.24
2022-11-02T04:38:55.064Z,885.6
2022-11-02T04:39:55.087Z,884.92
2022-11-02T04:40:55.065Z,883.88
2022-11-02T04:41:55.063Z,883.74
2022-11-02T04:42:55.071Z,883.28
2022-11-02T04:43:55.127Z,882.66
2022-11-02T04:44:55.067Z,882.69
2022-11-02T04:45:55.076Z,883
2022-11-02T04:46:55.073Z,882.39
2022-11-02T04:47:55.072Z,882.2
2022-11-02T04:48:55.078Z,882.02
2022-11-02T04:49:55.080Z,881.94
2022-11-02T04:50:55.078Z,882.25
2022-11-02T04:51:55.084Z,882.27
2022-11-02T04:52:55.081Z,882.67
2022-11-02T04:53:55.085Z,882.72
2022-11-02T04:54:55.203Z,882.08
2022-11-02T04:55:55.110Z,882.53
2022-11-02T04:56:55.090Z,882.48
2022-11-02T04:57:55.093Z,883
2022-11-02T04:58:55.093Z,883.14
2022-11-02T04:59:55.091Z,883.38
2022-11-02T05:00:55.096Z,884.2
2022-11-02T05:01:55.193Z,883.8
2022-11-02T05:02:55.185Z,884.31
2022-11-02T05:03:55.100Z,884.51
2022-11-02T05:04:55.101Z,885.26
2022-11-02T05:05:55.104Z,885.75
2022-11-02T05:06:58.892Z,886.07
2022-11-02T05:07:55.106Z,886.83
2022-11-02T05:08:55.114Z,887.17
2022-11-02T05:09:55.109Z,886.9
2022-11-02T05:10:55.108Z,886.37
2022-11-02T05:11:55.133Z,885.71
2022-11-02T05:12:55.118Z,884.63
2022-11-02T05:13:55.116Z,884.5
2022-11-02T05:14:55.116Z,884.17
2022-11-02T05:15:55.119Z,883.97
2022-11-02T05:16:55.117Z,884.4
2022-11-02T05:17:55.229Z,884.14
2022-11-02T05:18:55.120Z,884.2
2022-11-02T05:19:55.127Z,883.81
2022-11-02T05:20:55.123Z,882.97
2022-11-02T05:21:55.130Z,882.34
2022-11-02T05:22:55.132Z,880.99
2022-11-02T05:23:57.997Z,881.27
2022-11-02T05:24:55.130Z,880.91
2022-11-02T05:25:55.129Z,880.82
2022-11-02T05:26:55.137Z,880.56
2022-11-02T05:27:55.162Z,880.45
2022-11-02T05:28:55.145Z,880.16
2022-11-02T05:29:55.140Z,880.72
2022-11-02T05:30:55.138Z,880.2
2022-11-02T05:31:55.141Z,880.05
2022-11-02T05:32:55.145Z,880.09
2022-11-02T05:33:55.147Z,878.85
2022-11-02T05:34:55.156Z,878.14
2022-11-02T05:35:55.146Z,877.87
2022-11-02T05:36:55.150Z,876.86
2022-11-02T05:37:55.152Z,876.65
2022-11-02T05:38:55.149Z,875.99
2022-11-02T05:39:55.157Z,875.23
2022-11-02T05:40:55.154Z,875.51
2022-11-02T05:41:55.158Z,875.75
2022-11-02T05:42:55.159Z,875.47
2022-11-02T05:43:55.183Z,875
2022-11-02T05:44:55.159Z,874.72
2022-11-02T05:45:55.182Z,874.09
2022-11-02T05:46:55.164Z,873.79
2022-11-02T05:47:55.166Z,873.8
2022-11-02T05:48:55.168Z,873.28
2022-11-02T05:49:55.167Z,873.59
2022-11-02T05:50:55.191Z,873.63
2022-11-02T05:51:55.173Z,873.75
2022-11-02T05:52:55.176Z,873.43
2022-11-02T05:53:55.178Z,873.1
2022-11-02T05:54:55.175Z,872.82
2022-11-02T05:55:55.762Z,872.74
2022-11-02T05:56:55.182Z,872.61
2022-11-02T05:57:55.183Z,872.47
2022-11-02T05:58:55.186Z,872.31
2022-11-02T05:59:55.211Z,872.57
2022-11-02T06:00:55.183Z,871.93
2022-11-02T06:01:55.279Z,872.67
2022-11-02T06:02:55.187Z,872.42
2022-11-02T06:03:55.192Z,871.57
2022-11-02T06:04:55.249Z,872.28
2022-11-02T06:05:55.192Z,871.49
2022-11-02T06:06:56.235Z,871.01
2022-11-02T06:07:55.197Z,870.93
2022-11-02T06:08:55.195Z,870.42
2022-11-02T06:09:55.202Z,869.37
2022-11-02T06:10:55.200Z,869.25
2022-11-02T06:11:55.209Z,868.85
2022-11-02T06:12:55.206Z,869.13
2022-11-02T06:13:55.208Z,868.32
2022-11-02T06:14:55.206Z,867.76
2022-11-02T06:15:55.234Z,868.49
2022-11-02T06:16:55.210Z,869.11
2022-11-02T06:17:57.972Z,869.39
2022-11-02T06:18:55.217Z,869.59
2022-11-02T06:19:55.215Z,870.12
2022-11-02T06:20:55.213Z,870.01
2022-11-02T06:21:55.215Z,870.51
2022-11-02T06:22:55.220Z,870.96
2022-11-02T06:23:55.231Z,871.07
2022-11-02T06:24:55.222Z,871.43
2022-11-02T06:25:55.224Z,871.88
2022-11-02T06:26:55.224Z,872.31
2022-11-02T06:27:55.223Z,872.76
2022-11-02T06:28:58.287Z,872.78
2022-11-02T06:29:55.228Z,873.45
2022-11-02T06:30:55.230Z,873.76
2022-11-02T06:31:55.256Z,874.45
2022-11-02T06:32:55.236Z,874.97
2022-11-02T06:33:55.241Z,875.89
2022-11-02T06:34:55.237Z,876.14
2022-11-02T06:35:55.240Z,876.94
2022-11-02T06:36:55.237Z,878.12
2022-11-02T06:37:55.237Z,879.24
2022-11-02T06:38:55.245Z,880.6
2022-11-02T06:39:58.100Z,881.8
2022-11-02T06:40:55.242Z,882.74
2022-11-02T06:41:55.246Z,884.24
2022-11-02T06:43:03.526Z,884.31
2022-11-02T06:43:55.250Z,885.35
2022-11-02T06:44:55.250Z,886.36
2022-11-02T06:45:55.250Z,888.8
2022-11-02T06:46:55.254Z,891.64
2022-11-02T06:47:55.282Z,894.67
2022-11-02T06:48:55.256Z,897.52
2022-11-02T06:49:55.261Z,898.66
2022-11-02T06:50:55.262Z,899.69
2022-11-02T06:51:55.262Z,900.26
2022-11-02T06:52:55.266Z,901.51
2022-11-02T06:53:55.275Z,906.28
2022-11-02T06:54:55.266Z,913.97
2022-11-02T06:55:55.272Z,921.6
2022-11-02T06:56:55.906Z,929.43
2022-11-02T06:57:55.270Z,937.09
2022-11-02T06:58:55.271Z,944.8
2022-11-02T06:59:55.324Z,952.48
2022-11-02T07:00:55.301Z,960.24
2022-11-02T07:01:55.402Z,967.32
2022-11-02T07:02:55.282Z,973.94
2022-11-02T07:03:55.302Z,980.85
2022-11-02T07:04:55.289Z,987.34
2022-11-02T07:05:55.290Z,992.58
2022-11-02T07:06:55.288Z,998.47
2022-11-02T07:07:55.285Z,1003.13
2022-11-02T07:08:55.291Z,1007.41
2022-11-02T07:09:55.291Z,1010.99
2022-11-02T07:10:55.348Z,1013.73
2022-11-02T07:11:55.291Z,1016.25
2022-11-02T07:12:55.304Z,1018.19
2022-11-02T07:13:55.295Z,1019.82
2022-11-02T07:14:55.298Z,1022.22
2022-11-02T07:15:55.297Z,1024.7
2022-11-02T07:16:55.299Z,1025.71
2022-11-02T07:17:55.301Z,1026.98
2022-11-02T07:18:55.303Z,1027.44
2022-11-02T07:19:55.330Z,1028.47
2022-11-02T07:20:55.306Z,1029.17
2022-11-02T07:21:55.428Z,1030.41
2022-11-02T07:22:55.319Z,1032.77
2022-11-02T07:23:55.313Z,1034.52
2022-11-02T07:24:55.324Z,1036.05
2022-11-02T07:25:55.313Z,1037.16
2022-11-02T07:26:55.318Z,1038.74
2022-11-02T07:27:55.322Z,1040.01
2022-11-02T07:28:59.170Z,1042.7
2022-11-02T07:29:55.322Z,1044.68
2022-11-02T07:30:55.333Z,1047.16
2022-11-02T07:31:55.325Z,1049.95
2022-11-02T07:32:55.330Z,1052.87
2022-11-02T07:33:55.333Z,1054.43
2022-11-02T07:34:55.333Z,1053.55
2022-11-02T07:35:55.366Z,1055.96
2022-11-02T07:36:55.334Z,1057.74
2022-11-02T07:37:55.337Z,1058.98
2022-11-02T07:38:55.338Z,1061.37
2022-11-02T07:39:57.798Z,1064.34
2022-11-02T07:40:55.346Z,1063.51
2022-11-02T07:41:55.419Z,1063.6
2022-11-02T07:42:55.354Z,1065.77
2022-11-02T07:43:55.344Z,1068.22
2022-11-02T07:44:55.354Z,1070.93
2022-11-02T07:45:55.352Z,1073.22
2022-11-02T07:46:55.353Z,1075.63
2022-11-02T07:47:55.357Z,1077.75
2022-11-02T07:48:55.354Z,1079.66
2022-11-02T07:49:55.408Z,1081.72
2022-11-02T07:50:58.471Z,1083.59
2022-11-02T07:51:55.357Z,1086.79
2022-11-02T07:52:55.360Z,1087.43
2022-11-02T07:53:55.371Z,1086.67
2022-11-02T07:54:55.364Z,1085.58
2022-11-02T07:55:55.369Z,1085.16
2022-11-02T07:56:55.364Z,1084.69
2022-11-02T07:57:55.373Z,1084.56
2022-11-02T07:58:55.370Z,1085.42
2022-11-02T07:59:55.371Z,1087.9
2022-11-02T08:00:59.537Z,1091.33
2022-11-02T08:01:55.547Z,1094.41
2022-11-02T08:02:55.451Z,1097.06
2022-11-02T08:03:55.382Z,1098.66
2022-11-02T08:04:55.383Z,1097.14
2022-11-02T08:05:55.382Z,1095.63
2022-11-02T08:06:55.414Z,1094.71
2022-11-02T08:07:55.385Z,1093.98
2022-11-02T08:08:55.391Z,1093.28
2022-11-02T08:09:55.391Z,1092.66
2022-11-02T08:10:55.395Z,1092.48
2022-11-02T08:11:55.392Z,1092.17
2022-11-02T08:12:55.396Z,1091.83
2022-11-02T08:13:55.404Z,1091.22
2022-11-02T08:14:55.402Z,1090.56
2022-11-02T08:15:55.400Z,1089.65
2022-11-02T08:16:55.403Z,1089.28
2022-11-02T08:17:55.404Z,1089.39
2022-11-02T08:18:55.408Z,1089.26
2022-11-02T08:19:55.409Z,1088.85
2022-11-02T08:20:56.412Z,1088.91
2022-11-02T08:21:55.409Z,1089.09
2022-11-02T08:22:58.239Z,1089.23
2022-11-02T08:23:58.451Z,1089.91
2022-11-02T08:24:55.413Z,1089.9
2022-11-02T08:25:55.417Z,1089.54
2022-11-02T08:26:55.426Z,1089.03
2022-11-02T08:27:55.424Z,1088.22
2022-11-02T08:28:55.421Z,1087.63
2022-11-02T08:29:55.428Z,1087.06
2022-11-02T08:30:55.462Z,1086.52
2022-11-02T08:31:55.448Z,1085.55
2022-11-02T08:32:56.955Z,1084.86
2022-11-02T08:33:58.302Z,1084.31
2022-11-02T08:34:55.433Z,1083.47
2022-11-02T08:35:55.443Z,1082.62
2022-11-02T08:36:55.456Z,1081.58
2022-11-02T08:37:55.437Z,1080.19
2022-11-02T08:38:55.467Z,1079.16
2022-11-02T08:39:55.446Z,1077.98
2022-11-02T08:40:55.466Z,1076.96
2022-11-02T08:41:55.467Z,1076.16
2022-11-02T08:42:55.452Z,1074.92
2022-11-02T08:43:55.449Z,1073.93
2022-11-02T08:44:58.590Z,1073.2
2022-11-02T08:46:55.519Z,1071.33
2022-11-02T08:47:55.453Z,1071
2022-11-02T08:48:55.457Z,1070.44
2022-11-02T08:49:55.462Z,1070.04
2022-11-02T08:50:55.458Z,1069.2
2022-11-02T08:51:55.533Z,1068.61
2022-11-02T08:52:55.464Z,1068.42
2022-11-02T08:53:55.464Z,1067.85
2022-11-02T08:54:55.491Z,1067.48
2022-11-02T08:55:58.510Z,1066.9
2022-11-02T08:56:55.492Z,1066.48
2022-11-02T08:57:55.468Z,1066.29
2022-11-02T08:58:55.477Z,1066.35
2022-11-02T08:59:55.475Z,1066.41
2022-11-02T09:00:55.493Z,1066.1
2022-11-02T09:01:55.594Z,1065.48
2022-11-02T09:02:55.562Z,1064.55
2022-11-02T09:03:55.483Z,1063.53
2022-11-02T09:04:55.485Z,1063.17
2022-11-02T09:05:55.488Z,1062.69
2022-11-02T09:06:55.507Z,1062.72
2022-11-02T09:07:55.487Z,1062.8
2022-11-02T09:08:56.420Z,1063.16
2022-11-02T09:09:55.495Z,1063.71
2022-11-02T09:10:55.525Z,1064.19
2022-11-02T09:11:55.518Z,1064.68
2022-11-02T09:12:55.492Z,1065.39
2022-11-02T09:13:57.002Z,1065.92
2022-11-02T09:14:55.501Z,1066.37
2022-11-02T09:15:55.517Z,1067.12
2022-11-02T09:16:55.525Z,1067.14
2022-11-02T09:17:55.508Z,1067.97
2022-11-02T09:18:55.507Z,1069.1
2022-11-02T09:19:55.513Z,1070.18
2022-11-02T09:20:55.511Z,1071.86
2022-11-02T09:21:55.531Z,1073.24
2022-11-02T09:22:55.514Z,1075.21
2022-11-02T09:23:55.514Z,1077.07
2022-11-02T09:24:55.522Z,1078.23
2022-11-02T09:25:55.517Z,1079.05
2022-11-02T09:26:55.582Z,1079.95
2022-11-02T09:27:55.921Z,1080.89
2022-11-02T09:28:55.524Z,1082.12
2022-11-02T09:29:55.523Z,1082.67
2022-11-02T09:30:55.531Z,1083.86
2022-11-02T09:31:55.551Z,1085.11
2022-11-02T09:32:55.532Z,1086.21
2022-11-02T09:33:55.530Z,1087.32
2022-11-02T09:34:55.531Z,1088.71
2022-11-02T09:35:55.534Z,1090.52
2022-11-02T09:36:55.559Z,1092.45
2022-11-02T09:37:55.543Z,1094.65
2022-11-02T09:38:55.539Z,1096.68
2022-11-02T09:39:55.543Z,1099.93
2022-11-02T09:40:55.547Z,1102.59
2022-11-02T09:41:55.574Z,1103.45
2022-11-02T09:42:55.590Z,1103.98
2022-11-02T09:43:58.528Z,1104.63
2022-11-02T09:44:55.549Z,1105.36
2022-11-02T09:45:55.555Z,1105.59
2022-11-02T09:47:28.231Z,1105.75
2022-11-02T09:48:32.388Z,1106.81
2022-11-02T09:49:32.076Z,1107.93
2022-11-02T09:50:32.067Z,1108.39
2022-11-02T09:51:32.081Z,1108.3
2022-11-02T09:52:32.095Z,1107.84
2022-11-02T09:53:35.093Z,1107.36
2022-11-02T09:54:32.085Z,1107.6
2022-11-02T09:55:32.083Z,1107.92
2022-11-02T09:56:32.095Z,1108.48
2022-11-02T09:57:32.110Z,1108.98
2022-11-02T09:58:32.107Z,1109.22
2022-11-02T09:59:32.084Z,1109.53
2022-11-02T10:00:32.088Z,1109.53
2022-11-02T10:01:32.120Z,1109.65
2022-11-02T10:02:32.154Z,1109.22
2022-11-02T10:03:32.100Z,1108.7
2022-11-02T10:04:34.999Z,1108.64
2022-11-02T10:05:32.096Z,1108.4
2022-11-02T10:06:32.097Z,1108.28
2022-11-02T10:07:32.124Z,1108.46
2022-11-02T10:08:32.102Z,1108.48
2022-11-02T10:09:32.113Z,1109.05
2022-11-02T10:10:32.107Z,1109.29
2022-11-02T10:11:32.130Z,1109.78
2022-11-02T10:12:32.132Z,1109.81
2022-11-02T10:13:32.112Z,1109.59
2022-11-02T10:14:32.141Z,1109.56
2022-11-02T10:15:34.992Z,1109.12
2022-11-02T10:16:32.116Z,1108.96
2022-11-02T10:17:32.141Z,1108.88
2022-11-02T10:18:32.131Z,1109.01
2022-11-02T10:19:32.119Z,1109.51
2022-11-02T10:20:32.125Z,1109.7
2022-11-02T10:21:32.124Z,1109.61
2022-11-02T10:22:32.153Z,1109.15
2022-11-02T10:23:32.128Z,1108.67
2022-11-02T10:24:32.131Z,1108.54
2022-11-02T10:25:32.133Z,1108.28
2022-11-02T10:26:34.923Z,1107.83
2022-11-02T10:27:32.194Z,1107.51
2022-11-02T10:28:32.137Z,1107.18
2022-11-02T10:29:32.140Z,1107.09
2022-11-02T10:30:32.182Z,1107.02
2022-11-02T10:31:32.139Z,1106.59
2022-11-02T10:32:32.242Z,1106.33
2022-11-02T10:33:32.143Z,1105.74
2022-11-02T10:34:32.146Z,1105.58
2022-11-02T10:35:40.945Z,1105.58
2022-11-02T10:36:32.150Z,1105.38
2022-11-02T10:38:32.153Z,1105.05
2022-11-02T10:39:32.154Z,1104.54
2022-11-02T10:40:32.156Z,1104.43
2022-11-02T10:41:32.159Z,1104.43
2022-11-02T10:42:32.157Z,1104.73
2022-11-02T10:43:32.165Z,1105.08
2022-11-02T10:44:32.169Z,1105.61
2022-11-02T10:45:32.174Z,1106.18
2022-11-02T10:46:32.208Z,1106.78
2022-11-02T10:47:32.166Z,1107.11
2022-11-02T10:48:32.173Z,1107.45
2022-11-02T10:49:32.172Z,1107.79
2022-11-02T10:50:32.171Z,1107.92
2022-11-02T10:51:32.183Z,1108.08
2022-11-02T10:52:32.176Z,1108.56
2022-11-02T10:53:48.076Z,1109.6
2022-11-02T10:54:34.422Z,1110.12
2022-11-02T10:55:32.186Z,1111.01
2022-11-02T10:56:32.184Z,1111.5
2022-11-02T10:57:32.201Z,1112.21
2022-11-02T10:58:32.181Z,1112.99
2022-11-02T10:59:32.190Z,1113.72
2022-11-02T11:00:32.259Z,1114.37
2022-11-02T11:01:32.279Z,1114.86
2022-11-02T11:02:32.225Z,1114.83
2022-11-02T11:03:32.192Z,1115.17
2022-11-02T11:04:32.195Z,1115.63
2022-11-02T11:05:32.199Z,1116.2
2022-11-02T11:06:32.197Z,1116.64
2022-11-02T11:07:32.200Z,1117.23
2022-11-02T11:08:32.200Z,1118.04
2022-11-02T11:09:32.205Z,1118.71
2022-11-02T11:10:32.205Z,1119.95
2022-11-02T11:11:32.205Z,1121.25
2022-11-02T11:12:32.213Z,1121.36
2022-11-02T11:16:45.766Z,1123.02
2022-11-02T11:19:42.134Z,1123.86
2022-11-02T11:20:42.122Z,1124.53
2022-11-02T11:21:42.123Z,1125.06
2022-11-02T11:22:42.133Z,1125.46
2022-11-02T11:23:42.141Z,1125.39
2022-11-02T11:24:42.181Z,1125.95
2022-11-02T11:25:42.132Z,1126.6
2022-11-02T11:26:42.128Z,1127.25
2022-11-02T11:27:42.140Z,1127.4
2022-11-02T11:28:42.132Z,1127.62
2022-11-02T11:29:42.138Z,1127.63
2022-11-02T11:31:42.136Z,1128.48
2022-11-02T11:32:42.143Z,1128.99
2022-11-02T11:33:42.167Z,1129.08
2022-11-02T11:34:42.145Z,1129.06
2022-11-02T11:35:42.147Z,1129.11
2022-11-02T11:36:42.150Z,1129
2022-11-02T11:37:42.148Z,1129.03
2022-11-02T11:38:42.151Z,1128.84
2022-11-02T11:39:42.150Z,1128.99
2022-11-02T11:40:42.156Z,1128.65
2022-11-02T11:41:42.159Z,1128.45
2022-11-02T11:42:42.162Z,1128.35
2022-11-02T11:43:42.160Z,1128.54
2022-11-02T11:44:42.166Z,1128.81
2022-11-02T11:45:42.162Z,1128.82
2022-11-02T11:46:42.163Z,1128.59
2022-11-02T11:47:42.169Z,1128.5
2022-11-02T11:48:42.189Z,1128.2
2022-11-02T11:50:03.362Z,1128.04
2022-11-02T11:50:42.170Z,1127.98
2022-11-02T11:51:42.177Z,1127.97
2022-11-02T11:52:42.172Z,1128.18
2022-11-02T11:53:42.194Z,1128.27
2022-11-02T11:54:42.175Z,1128.02
2022-11-02T11:55:42.178Z,1127.79
2022-11-02T11:56:42.182Z,1127.36
2022-11-02T11:57:42.186Z,1126.76
2022-11-02T11:58:43.383Z,1126.2
2022-11-02T11:59:45.055Z,1125.57
2022-11-02T12:00:42.186Z,1125.12
2022-11-02T12:01:42.268Z,1124.6
2022-11-02T12:02:44.595Z,1124.05
2022-11-02T12:03:42.215Z,1123.76
2022-11-02T12:04:42.198Z,1123.45
2022-11-02T12:05:42.220Z,1122.67
2022-11-02T12:06:42.198Z,1121.8
2022-11-02T12:07:42.205Z,1120.76
2022-11-02T12:08:42.225Z,1119.93
2022-11-02T12:09:42.206Z,1119.4
2022-11-02T12:10:45.248Z,1119
2022-11-02T12:11:42.206Z,1118.96
2022-11-02T12:12:42.208Z,1118.65
2022-11-02T12:13:42.269Z,1118.55
2022-11-02T12:14:42.215Z,1118.3
2022-11-02T12:15:42.226Z,1118.5
2022-11-02T12:16:42.213Z,1118.74
2022-11-02T12:17:42.218Z,1118.99
2022-11-02T12:18:42.242Z,1118.85
2022-11-02T12:19:42.223Z,1118.82
2022-11-02T12:20:42.225Z,1118.83
2022-11-02T12:21:45.014Z,1118.84
2022-11-02T12:22:42.224Z,1119.06
2022-11-02T12:23:42.250Z,1119.18
2022-11-02T12:24:42.231Z,1119.19
2022-11-02T12:25:42.231Z,1119.7
2022-11-02T12:26:42.235Z,1120.01
2022-11-02T12:27:42.233Z,1120.61
2022-11-02T12:28:42.309Z,1120.58
2022-11-02T12:29:42.272Z,1120.54
2022-11-02T12:30:42.256Z,1120.59